createdAt,value
2018-03-18T00:04:45.598Z,77.80
2018-03-18T00:07:20.406Z,77.60
2018-03-18T00:09:54.905Z,77.80
2018-03-18T00:12:28.914Z,78.60
2018-03-18T00:15:03.405Z,77.10
2018-03-18T00:17:38.292Z,77.40
2018-03-18T00:20:13.834Z,78.40
2018-03-18T00:22:47.962Z,78.30
2018-03-18T00:25:21.725Z,77.50
2018-03-18T00:27:56.650Z,76.60
2018-03-18T00:30:31.783Z,76.40
2018-03-18T00:33:06.070Z,76.40
2018-03-18T00:35:40.641Z,77.10
2018-03-18T00:38:15.586Z,77.00
2018-03-18T00:40:50.193Z,77.00
2018-03-18T00:43:24.098Z,77.00
2018-03-18T00:45:59.431Z,76.20
2018-03-18T00:48:33.752Z,76.20
2018-03-18T00:51:08.398Z,76.00
2018-03-18T00:53:43.882Z,75.40
2018-03-18T00:56:18.998Z,75.40
2018-03-18T00:58:53.253Z,75.30
2018-03-18T01:01:27.686Z,74.50
2018-03-18T01:04:02.642Z,75.70
2018-03-18T01:06:37.365Z,76.50
2018-03-18T01:09:12.081Z,76.00
2018-03-18T01:11:47.389Z,75.80
2018-03-18T01:14:21.434Z,75.80
2018-03-18T01:16:55.085Z,76.00
2018-03-18T01:19:29.149Z,76.50
2018-03-18T01:22:03.713Z,76.40
2018-03-18T01:24:37.887Z,75.60
2018-03-18T01:27:12.515Z,75.30
2018-03-18T01:29:46.629Z,75.90
2018-03-18T01:32:22.078Z,76.10
2018-03-18T01:34:56.605Z,76.00
2018-03-18T01:37:31.010Z,75.70
2018-03-18T01:40:05.129Z,76.80
2018-03-18T01:42:39.757Z,75.70
2018-03-18T01:45:14.466Z,75.90
2018-03-18T01:47:48.330Z,75.30
2018-03-18T01:50:22.511Z,75.40
2018-03-18T01:53:09.300Z,75.30
2018-03-18T01:55:43.716Z,75.20
2018-03-18T01:58:18.383Z,75.60
2018-03-18T02:00:52.562Z,75.40
2018-03-18T02:03:26.997Z,75.90
2018-03-18T02:06:01.396Z,75.70
2018-03-18T02:08:35.415Z,75.70
2018-03-18T02:11:09.674Z,75.30
2018-03-18T02:13:44.087Z,75.40
2018-03-18T02:16:19.589Z,75.00
2018-03-18T02:18:54.108Z,74.90
2018-03-18T02:21:30.632Z,75.00
2018-03-18T02:24:05.267Z,75.80
2018-03-18T02:26:40.161Z,75.40
2018-03-18T02:29:13.966Z,75.70
2018-03-18T02:31:48.070Z,75.70
2018-03-18T02:34:22.588Z,74.90
2018-03-18T02:36:56.737Z,74.50
2018-03-18T02:39:31.267Z,74.80
2018-03-18T02:42:05.629Z,74.50
2018-03-18T02:44:40.632Z,74.40
2018-03-18T02:47:14.735Z,74.20
2018-03-18T02:49:49.396Z,74.50
2018-03-18T02:52:23.539Z,73.30
2018-03-18T02:54:57.971Z,74.40
2018-03-18T02:57:31.753Z,73.60
2018-03-18T03:00:06.289Z,73.90
2018-03-18T03:02:40.282Z,74.50
2018-03-18T03:05:14.666Z,73.70
2018-03-18T03:07:49.214Z,73.20
2018-03-18T03:10:23.352Z,73.10
2018-03-18T03:12:57.345Z,72.80
2018-03-18T03:15:31.849Z,72.30
2018-03-18T03:18:05.886Z,73.10
2018-03-18T03:20:40.289Z,73.10
2018-03-18T03:23:14.442Z,72.10
2018-03-18T03:25:48.977Z,73.10
2018-03-18T03:28:22.721Z,72.80
2018-03-18T03:30:56.550Z,72.80
2018-03-18T03:33:30.669Z,73.80
2018-03-18T03:36:05.248Z,73.10
2018-03-18T03:38:38.966Z,72.90
2018-03-18T03:41:12.593Z,73.80
2018-03-18T03:43:46.594Z,73.40
2018-03-18T03:46:21.019Z,72.80
2018-03-18T03:48:54.757Z,73.80
2018-03-18T03:51:28.473Z,74.20
2018-03-18T03:54:02.545Z,73.20
2018-03-18T03:56:37.066Z,72.50
2018-03-18T03:59:11.721Z,72.50
2018-03-18T04:01:45.802Z,72.30
2018-03-18T04:04:21.469Z,72.40
2018-03-18T04:06:55.152Z,72.20
2018-03-18T04:09:29.788Z,70.80
2018-03-18T04:12:03.666Z,70.80
2018-03-18T04:14:39.453Z,71.10
2018-03-18T04:17:13.944Z,71.10
2018-03-18T04:19:48.744Z,71.40
2018-03-18T04:22:22.345Z,71.00
2018-03-18T04:24:57.325Z,71.40
2018-03-18T04:27:32.769Z,71.00
2018-03-18T04:30:07.486Z,70.30
2018-03-18T04:32:41.506Z,70.30
2018-03-18T04:35:15.650Z,70.00
2018-03-18T04:37:50.137Z,70.30
2018-03-18T04:40:25.058Z,69.20
2018-03-18T04:42:59.583Z,69.10
2018-03-18T04:45:33.620Z,69.00
2018-03-18T04:48:08.079Z,70.00
2018-03-18T04:50:41.869Z,69.60
2018-03-18T04:53:15.646Z,68.20
2018-03-18T04:55:49.701Z,68.70
2018-03-18T04:58:24.100Z,67.60
2018-03-18T05:00:57.798Z,68.60
2018-03-18T05:03:32.523Z,67.80
2018-03-18T05:06:06.800Z,67.80
2018-03-18T05:08:41.462Z,68.20
2018-03-18T05:11:15.970Z,66.90
2018-03-18T05:13:50.651Z,66.80
2018-03-18T05:16:24.797Z,66.80
2018-03-18T05:18:59.514Z,67.50
2018-03-18T05:21:33.335Z,67.30
2018-03-18T05:24:07.010Z,67.30
2018-03-18T05:26:41.877Z,66.30
2018-03-18T05:29:15.572Z,66.00
2018-03-18T05:31:49.583Z,66.60
2018-03-18T05:34:24.784Z,66.20
2018-03-18T05:36:59.133Z,66.10
2018-03-18T05:39:33.451Z,65.70
2018-03-18T05:42:07.575Z,65.50
2018-03-18T05:44:42.372Z,66.30
2018-03-18T05:47:17.042Z,66.30
2018-03-18T05:49:50.837Z,64.60
2018-03-18T05:52:24.871Z,64.90
2018-03-18T05:54:59.444Z,65.30
2018-03-18T05:57:34.280Z,64.80
2018-03-18T06:00:09.034Z,64.80
2018-03-18T06:02:42.750Z,64.40
2018-03-18T06:05:17.351Z,64.50
2018-03-18T06:07:51.558Z,64.50
2018-03-18T06:10:26.081Z,64.60
2018-03-18T06:12:59.968Z,63.90
2018-03-18T06:15:34.582Z,64.00
2018-03-18T06:18:09.551Z,64.10
2018-03-18T06:20:44.763Z,64.00
2018-03-18T06:23:18.735Z,64.00
2018-03-18T06:25:52.506Z,64.60
2018-03-18T06:28:26.234Z,64.50
2018-03-18T06:31:00.314Z,64.10
2018-03-18T06:33:34.336Z,63.70
2018-03-18T06:36:09.821Z,63.10
2018-03-18T06:38:43.893Z,62.70
2018-03-18T06:41:17.778Z,63.40
2018-03-18T06:43:51.427Z,63.40
2018-03-18T06:46:25.358Z,63.20
2018-03-18T06:49:00.538Z,63.00
2018-03-18T06:51:34.353Z,62.90
2018-03-18T06:54:09.072Z,63.30
2018-03-18T06:56:43.862Z,63.50
2018-03-18T06:59:17.974Z,63.50
2018-03-18T07:01:52.438Z,63.30
2018-03-18T07:04:26.655Z,64.60
2018-03-18T07:07:00.407Z,64.40
2018-03-18T07:09:34.973Z,64.30
2018-03-18T07:12:08.889Z,64.30
2018-03-18T07:14:44.010Z,63.70
2018-03-18T07:17:19.230Z,63.90
2018-03-18T07:19:54.079Z,64.10
2018-03-18T07:22:27.962Z,64.10
2018-03-18T07:25:02.930Z,66.10
2018-03-18T07:27:37.545Z,66.00
2018-03-18T07:30:12.989Z,67.20
2018-03-18T07:32:46.901Z,67.10
2018-03-18T07:35:22.539Z,66.30
2018-03-18T07:37:57.058Z,66.20
2018-03-18T07:40:30.729Z,68.50
2018-03-18T07:43:06.077Z,68.90
2018-03-18T07:45:40.434Z,68.90
2018-03-18T07:48:14.865Z,68.90
2018-03-18T07:50:48.537Z,68.70
2018-03-18T07:53:22.347Z,68.30
2018-03-18T07:55:57.190Z,69.10
2018-03-18T07:58:32.626Z,69.10
2018-03-18T08:01:07.690Z,69.40
2018-03-18T08:03:42.439Z,69.40
2018-03-18T08:06:16.190Z,70.30
2018-03-18T08:08:49.925Z,69.70
2018-03-18T08:11:24.003Z,69.90
2018-03-18T08:13:59.255Z,68.90
2018-03-18T08:16:33.467Z,68.90
2018-03-18T08:19:07.888Z,69.50
2018-03-18T08:21:41.753Z,69.60
2018-03-18T08:24:15.517Z,69.50
2018-03-18T08:26:49.641Z,68.80
2018-03-18T08:29:24.948Z,67.90
2018-03-18T08:32:00.118Z,68.50
2018-03-18T08:34:34.202Z,67.50
2018-03-18T08:37:09.135Z,66.90
2018-03-18T08:39:43.253Z,66.60
2018-03-18T08:42:28.921Z,65.70
2018-03-18T08:45:02.781Z,65.80
2018-03-18T08:47:36.881Z,65.60
2018-03-18T08:50:11.370Z,64.40
2018-03-18T08:52:45.050Z,64.40
2018-03-18T08:55:18.686Z,63.60
2018-03-18T08:57:54.450Z,62.90
2018-03-18T09:00:29.073Z,62.90
2018-03-18T09:03:02.787Z,63.70
2018-03-18T09:05:37.981Z,63.00
2018-03-18T09:08:12.731Z,63.00
2018-03-18T09:10:47.172Z,62.80
2018-03-18T09:13:21.363Z,62.70
2018-03-18T09:15:55.853Z,62.50
2018-03-18T09:18:29.893Z,62.60
2018-03-18T09:21:05.097Z,62.00
2018-03-18T09:23:39.381Z,61.80
2018-03-18T09:26:14.022Z,61.10
2018-03-18T09:28:47.773Z,61.60
2018-03-18T09:31:21.482Z,60.50
2018-03-18T09:33:56.418Z,60.30
2018-03-18T09:36:31.025Z,60.30
2018-03-18T09:39:05.941Z,59.60
2018-03-18T09:41:40.571Z,59.60
2018-03-18T09:44:15.128Z,59.50
2018-03-18T09:46:49.659Z,60.70
2018-03-18T09:49:24.055Z,59.60
2018-03-18T09:51:58.194Z,60.20
2018-03-18T09:54:32.395Z,59.70
2018-03-18T09:57:06.765Z,59.70
2018-03-18T09:59:41.745Z,59.60
2018-03-18T10:02:16.169Z,59.70
2018-03-18T10:04:49.935Z,60.80
2018-03-18T10:07:23.570Z,59.60
2018-03-18T10:09:57.937Z,60.50
2018-03-18T10:12:32.054Z,60.20
2018-03-18T10:15:06.034Z,60.10
2018-03-18T10:17:40.505Z,59.90
2018-03-18T10:20:14.319Z,59.70
2018-03-18T10:22:48.039Z,60.20
2018-03-18T10:25:22.258Z,60.80
2018-03-18T10:27:56.810Z,61.90
2018-03-18T10:30:30.502Z,61.90
2018-03-18T10:33:04.412Z,60.60
2018-03-18T10:35:38.411Z,61.10
2018-03-18T10:38:13.750Z,61.40
2018-03-18T10:40:47.766Z,61.30
2018-03-18T10:43:22.264Z,61.80
2018-03-18T10:45:57.322Z,61.30
2018-03-18T10:48:31.943Z,61.20
2018-03-18T10:51:06.991Z,62.30
2018-03-18T10:53:41.712Z,62.20
2018-03-18T10:56:15.774Z,61.30
2018-03-18T10:58:50.701Z,63.10
2018-03-18T11:01:30.801Z,62.60
2018-03-18T11:04:18.073Z,61.70
2018-03-18T11:06:52.715Z,61.60
2018-03-18T11:09:27.766Z,62.40
2018-03-18T11:12:01.654Z,61.70
2018-03-18T11:14:36.374Z,62.20
2018-03-18T11:17:10.461Z,62.40
2018-03-18T11:19:44.888Z,62.60
2018-03-18T11:22:20.117Z,61.00
2018-03-18T11:24:54.026Z,61.00
2018-03-18T11:27:28.002Z,61.30
2018-03-18T11:30:03.331Z,61.80
2018-03-18T11:32:38.378Z,60.70
2018-03-18T11:35:12.164Z,60.70
2018-03-18T11:37:46.014Z,60.00
2018-03-18T11:40:20.494Z,60.20
2018-03-18T11:42:54.282Z,60.20
2018-03-18T11:45:27.899Z,60.40
2018-03-18T11:48:02.659Z,61.60
2018-03-18T11:50:36.497Z,61.60
2018-03-18T11:53:10.357Z,60.50
2018-03-18T11:55:44.149Z,60.90
2018-03-18T11:58:18.040Z,60.80
2018-03-18T12:00:53.425Z,60.10
2018-03-18T12:03:27.614Z,60.10
2018-03-18T12:06:01.847Z,60.20
2018-03-18T12:08:47.665Z,60.80
2018-03-18T12:11:22.246Z,60.50
2018-03-18T12:13:56.101Z,59.90
2018-03-18T12:16:29.919Z,61.30
2018-03-18T12:19:04.366Z,59.60
2018-03-18T12:21:39.198Z,60.00
2018-03-18T12:24:13.169Z,60.00
2018-03-18T12:26:47.738Z,59.60
2018-03-18T12:29:22.778Z,59.30
2018-03-18T12:31:57.306Z,59.30
2018-03-18T12:34:31.910Z,59.80
2018-03-18T12:37:05.822Z,59.30
2018-03-18T12:39:51.930Z,59.80
2018-03-18T12:42:39.032Z,59.60
2018-03-18T12:45:13.059Z,59.00
2018-03-18T12:47:48.692Z,59.50
2018-03-18T12:50:23.048Z,59.50
2018-03-18T12:52:57.237Z,59.80
2018-03-18T12:55:31.159Z,59.10
2018-03-18T12:58:05.781Z,59.20
2018-03-18T13:00:39.686Z,59.10
2018-03-18T13:03:14.302Z,59.20
2018-03-18T13:05:48.532Z,59.00
2018-03-18T13:08:23.713Z,60.70
2018-03-18T13:10:57.727Z,60.00
2018-03-18T13:13:31.321Z,58.50
2018-03-18T13:16:05.132Z,59.10
2018-03-18T13:18:38.739Z,60.10
2018-03-18T13:21:12.781Z,57.60
2018-03-18T13:23:47.113Z,58.40
2018-03-18T13:26:21.018Z,58.90
2018-03-18T13:28:55.406Z,58.90
2018-03-18T13:31:29.545Z,58.80
2018-03-18T13:34:03.237Z,58.60
2018-03-18T13:36:38.186Z,58.10
2018-03-18T13:39:12.701Z,58.30
2018-03-18T13:41:46.509Z,58.10
2018-03-18T13:44:21.297Z,57.40
2018-03-18T13:46:55.090Z,57.30
2018-03-18T13:49:29.672Z,58.60
2018-03-18T13:52:03.824Z,57.80
2018-03-18T13:54:38.402Z,58.20
2018-03-18T13:57:12.913Z,59.60
2018-03-18T13:59:46.899Z,59.60
2018-03-18T14:02:21.503Z,59.60
2018-03-18T14:04:55.227Z,59.60
2018-03-18T14:07:29.282Z,58.90
2018-03-18T14:10:03.607Z,59.40
2018-03-18T14:12:38.186Z,60.20
2018-03-18T14:15:12.005Z,59.50
2018-03-18T14:17:45.753Z,58.90
2018-03-18T14:20:19.679Z,59.20
2018-03-18T14:22:53.759Z,59.50
2018-03-18T14:25:28.853Z,59.50
2018-03-18T14:28:02.952Z,59.50
2018-03-18T14:30:37.203Z,59.10
2018-03-18T14:33:12.359Z,59.90
2018-03-18T14:35:46.387Z,59.90
2018-03-18T14:38:20.359Z,59.60
2018-03-18T14:40:54.977Z,60.90
2018-03-18T14:43:29.503Z,59.90
2018-03-18T14:46:03.690Z,59.90
2018-03-18T14:48:39.176Z,61.10
2018-03-18T14:51:12.855Z,60.60
2018-03-18T14:53:47.962Z,60.30
2018-03-18T14:56:23.037Z,60.20
2018-03-18T14:58:57.993Z,58.70
2018-03-18T15:01:31.821Z,58.70
2018-03-18T15:04:05.613Z,59.70
2018-03-18T15:06:40.922Z,60.00
2018-03-18T15:09:15.450Z,60.00
2018-03-18T15:11:49.969Z,61.20
2018-03-18T15:14:23.916Z,60.00
2018-03-18T15:16:57.810Z,59.10
2018-03-18T15:19:32.339Z,59.10
2018-03-18T15:22:06.282Z,59.00
2018-03-18T15:24:40.460Z,59.50
2018-03-18T15:27:14.654Z,59.10
2018-03-18T15:29:48.451Z,59.30
2018-03-18T15:32:22.353Z,59.20
2018-03-18T15:34:57.290Z,58.50
2018-03-18T15:37:31.607Z,59.20
2018-03-18T15:40:05.262Z,58.50
2018-03-18T15:42:38.858Z,58.60
2018-03-18T15:45:12.714Z,59.00
2018-03-18T15:47:48.084Z,59.30
2018-03-18T15:50:24.658Z,58.60
2018-03-18T15:52:58.755Z,58.80
2018-03-18T15:55:32.770Z,58.30
2018-03-18T15:58:07.879Z,57.90
2018-03-18T16:00:41.927Z,57.80
2018-03-18T16:03:15.716Z,58.40
2018-03-18T16:05:49.467Z,57.80
2018-03-18T16:08:25.081Z,58.30
2018-03-18T16:11:00.127Z,58.30
2018-03-18T16:13:34.420Z,58.30
2018-03-18T16:16:08.354Z,58.40
2018-03-18T16:18:43.250Z,58.30
2018-03-18T16:21:17.711Z,58.60
2018-03-18T16:23:51.437Z,57.90
2018-03-18T16:26:25.213Z,57.90
2018-03-18T16:29:10.782Z,58.80
2018-03-18T16:31:45.074Z,57.80
2018-03-18T16:34:20.343Z,57.00
2018-03-18T16:36:54.432Z,57.00
2018-03-18T16:39:29.025Z,58.10
2018-03-18T16:42:03.806Z,58.00
2018-03-18T16:44:39.204Z,57.30
2018-03-18T16:47:13.466Z,57.20
2018-03-18T16:49:48.037Z,57.80
2018-03-18T16:52:22.687Z,57.10
2018-03-18T16:54:56.231Z,56.50
2018-03-18T16:57:30.838Z,57.30
2018-03-18T17:00:05.525Z,56.70
2018-03-18T17:02:39.706Z,56.60
2018-03-18T17:05:14.192Z,56.20
2018-03-18T17:07:49.775Z,56.30
2018-03-18T17:10:23.711Z,56.30
2018-03-18T17:12:57.569Z,56.90
2018-03-18T17:15:31.295Z,56.50
2018-03-18T17:18:05.360Z,56.90
2018-03-18T17:20:40.622Z,56.20
2018-03-18T17:23:15.409Z,56.70
2018-03-18T17:25:49.257Z,56.70
2018-03-18T17:28:23.854Z,56.10
2018-03-18T17:30:57.663Z,55.70
2018-03-18T17:33:31.774Z,56.10
2018-03-18T17:36:07.010Z,55.90
2018-03-18T17:38:41.436Z,55.90
2018-03-18T17:41:15.806Z,56.30
2018-03-18T17:43:49.589Z,57.10
2018-03-18T17:46:35.910Z,56.30
2018-03-18T17:49:22.777Z,56.30
2018-03-18T17:52:08.595Z,56.30
2018-03-18T17:54:55.486Z,56.90
2018-03-18T17:57:30.879Z,56.00
2018-03-18T18:00:04.935Z,56.00
2018-03-18T18:02:39.257Z,55.70
2018-03-18T18:05:14.033Z,56.10
2018-03-18T18:07:47.867Z,57.10
2018-03-18T18:10:22.025Z,56.40
2018-03-18T18:12:56.429Z,56.50
2018-03-18T18:15:30.364Z,57.00
2018-03-18T18:18:04.063Z,56.60
2018-03-18T18:20:38.038Z,56.20
2018-03-18T18:23:12.458Z,56.90
2018-03-18T18:25:46.537Z,56.90
2018-03-18T18:28:22.056Z,57.00
2018-03-18T18:30:55.957Z,56.20
2018-03-18T18:33:29.717Z,56.60
2018-03-18T18:36:03.481Z,56.40
2018-03-18T18:38:38.478Z,55.90
2018-03-18T18:41:13.098Z,55.90
2018-03-18T18:43:47.628Z,56.40
2018-03-18T18:46:22.229Z,56.80
2018-03-18T18:48:56.142Z,56.70
2018-03-18T18:51:30.657Z,57.40
2018-03-18T18:54:05.393Z,56.70
2018-03-18T18:56:39.710Z,56.50
2018-03-18T18:59:14.198Z,56.80
2018-03-18T19:01:47.957Z,56.70
2018-03-18T19:04:21.585Z,57.10
2018-03-18T19:06:56.374Z,57.00
2018-03-18T19:09:30.961Z,56.90
2018-03-18T19:12:04.710Z,56.50
2018-03-18T19:14:38.594Z,57.10
2018-03-18T19:17:12.821Z,57.30
2018-03-18T19:19:46.968Z,57.10
2018-03-18T19:22:21.038Z,57.70
2018-03-18T19:24:55.586Z,57.60
2018-03-18T19:27:30.431Z,58.20
2018-03-18T19:30:05.718Z,57.60
2018-03-18T19:32:39.770Z,57.60
2018-03-18T19:35:13.399Z,57.80
2018-03-18T19:37:48.106Z,57.60
2018-03-18T19:40:22.813Z,58.40
2018-03-18T19:42:57.650Z,58.80
2018-03-18T19:45:32.356Z,58.80
2018-03-18T19:48:07.794Z,58.20
2018-03-18T19:50:41.721Z,58.10
2018-03-18T19:53:15.663Z,58.50
2018-03-18T19:55:49.494Z,58.40
2018-03-18T19:58:23.766Z,58.30
2018-03-18T20:00:58.868Z,58.70
2018-03-18T20:03:32.918Z,58.50
2018-03-18T20:06:08.129Z,59.20
2018-03-18T20:08:42.205Z,59.10
2018-03-18T20:11:16.752Z,58.80
2018-03-18T20:13:51.693Z,59.60
2018-03-18T20:16:25.446Z,59.60
2018-03-18T20:19:00.193Z,59.80
2018-03-18T20:21:34.189Z,59.20
2018-03-18T20:24:09.493Z,59.20
2018-03-18T20:26:43.592Z,59.20
2018-03-18T20:29:18.817Z,59.70
2018-03-18T20:31:53.093Z,60.00
2018-03-18T20:34:27.823Z,59.80
2018-03-18T20:37:02.428Z,60.40
2018-03-18T20:39:36.418Z,60.40
2018-03-18T20:42:11.022Z,60.00
2018-03-18T20:44:45.805Z,60.30
2018-03-18T20:47:20.664Z,60.40
2018-03-18T20:49:55.125Z,60.40
2018-03-18T20:52:29.878Z,60.60
2018-03-18T20:55:04.574Z,61.20
2018-03-18T20:57:42.373Z,61.00
2018-03-18T21:00:17.317Z,60.60
2018-03-18T21:02:51.969Z,60.60
2018-03-18T21:05:25.809Z,61.20
2018-03-18T21:07:59.577Z,60.50
2018-03-18T21:10:34.173Z,61.00
2018-03-18T21:13:08.079Z,60.90
2018-03-18T21:15:43.020Z,60.70
2018-03-18T21:18:17.457Z,60.80
2018-03-18T21:20:52.242Z,60.50
2018-03-18T21:23:25.854Z,60.40
2018-03-18T21:25:59.910Z,60.80
2018-03-18T21:28:34.303Z,60.30
2018-03-18T21:31:08.364Z,60.60
2018-03-18T21:33:43.024Z,60.60
2018-03-18T21:36:18.451Z,59.30
2018-03-18T21:38:52.640Z,59.30
2018-03-18T21:41:26.899Z,59.70
2018-03-18T21:44:00.929Z,60.30
2018-03-18T21:46:35.650Z,59.30
2018-03-18T21:49:10.333Z,59.30
2018-03-18T21:51:45.942Z,59.90
2018-03-18T21:54:19.874Z,59.80
2018-03-18T21:56:54.575Z,59.80
2018-03-18T21:59:28.506Z,58.60
2018-03-18T22:02:03.164Z,58.80
2018-03-18T22:04:38.405Z,58.70
2018-03-18T22:07:12.435Z,58.70
2018-03-18T22:09:48.105Z,59.50
2018-03-18T22:12:22.179Z,59.40
2018-03-18T22:14:57.568Z,59.10
2018-03-18T22:17:31.289Z,59.00
2018-03-18T22:20:06.084Z,59.20
2018-03-18T22:22:40.343Z,59.10
2018-03-18T22:25:14.921Z,59.00
2018-03-18T22:27:49.449Z,58.60
2018-03-18T22:30:23.298Z,58.40
2018-03-18T22:33:02.248Z,57.90
2018-03-18T22:35:36.904Z,57.90
2018-03-18T22:38:11.432Z,58.70
2018-03-18T22:40:45.137Z,57.80
2018-03-18T22:43:19.954Z,57.70
2018-03-18T22:45:53.793Z,57.60
2018-03-18T22:48:28.449Z,57.00
2018-03-18T22:51:02.297Z,57.40
2018-03-18T22:53:36.384Z,57.80
2018-03-18T22:56:10.797Z,57.50
2018-03-18T22:58:44.813Z,57.00
2018-03-18T23:01:20.354Z,57.60
2018-03-18T23:03:55.007Z,57.50
2018-03-18T23:06:28.762Z,56.70
2018-03-18T23:09:02.793Z,57.00
2018-03-18T23:11:37.265Z,57.20
2018-03-18T23:14:11.224Z,57.20
2018-03-18T23:16:45.283Z,57.00
2018-03-18T23:19:19.360Z,57.00
2018-03-18T23:21:54.663Z,56.80
2018-03-18T23:24:29.018Z,56.80
2018-03-18T23:27:04.326Z,57.30
2018-03-18T23:29:38.576Z,56.70
2018-03-18T23:32:13.113Z,57.00
2018-03-18T23:34:46.824Z,57.50
2018-03-18T23:37:20.506Z,56.70
2018-03-18T23:39:54.808Z,56.90
2018-03-18T23:42:29.152Z,57.20
2018-03-18T23:45:02.975Z,57.80
2018-03-18T23:47:36.701Z,57.10
2018-03-18T23:50:10.754Z,56.50
2018-03-18T23:52:46.110Z,56.30
2018-03-18T23:55:20.182Z,56.20
2018-03-18T23:57:54.137Z,56.50
